sensor_id;sensor_type;location;lat;lon;timestamp;P1;durP1;ratioP1;P2;durP2;ratioP2
48859;SDS011;34679;51.436;-2.518;2023-05-16T00:02:01;6.05;;;1.00;;
48859;SDS011;34679;51.436;-2.518;2023-05-16T00:04:27;5.43;;;1.13;;
48859;SDS011;34679;51.436;-2.518;2023-05-16T00:06:53;5.97;;;1.02;;
48859;SDS011;34679;51.436;-2.518;2023-05-16T00:09:19;4.95;;;1.13;;
48859;SDS011;34679;51.436;-2.518;2023-05-16T00:11:45;3.47;;;1.13;;
48859;SDS011;34679;51.436;-2.518;2023-05-16T00:14:12;6.03;;;1.17;;
48859;SDS011;34679;51.436;-2.518;2023-05-16T00:16:39;7.88;;;1.58;;
48859;SDS011;34679;51.436;-2.518;2023-05-16T00:19:05;4.72;;;0.85;;
48859;SDS011;34679;51.436;-2.518;2023-05-16T00:21:31;6.72;;;1.23;;
48859;SDS011;34679;51.436;-2.518;2023-05-16T00:24:03;3.60;;;0.93;;
48859;SDS011;34679;51.436;-2.518;2023-05-16T00:26:29;8.05;;;1.38;;
48859;SDS011;34679;51.436;-2.518;2023-05-16T00:28:55;4.80;;;0.93;;
48859;SDS011;34679;51.436;-2.518;2023-05-16T00:31:21;2.85;;;1.00;;
48859;SDS011;34679;51.436;-2.518;2023-05-16T00:33:47;5.78;;;1.00;;
48859;SDS011;34679;51.436;-2.518;2023-05-16T00:36:12;5.45;;;1.27;;
48859;SDS011;34679;51.436;-2.518;2023-05-16T00:38:38;3.38;;;1.10;;
48859;SDS011;34679;51.436;-2.518;2023-05-16T00:41:04;4.97;;;1.15;;
48859;SDS011;34679;51.436;-2.518;2023-05-16T00:43:29;7.25;;;1.33;;
48859;SDS011;34679;51.436;-2.518;2023-05-16T00:45:55;6.85;;;1.17;;
48859;SDS011;34679;51.436;-2.518;2023-05-16T00:48:21;5.30;;;1.27;;
48859;SDS011;34679;51.436;-2.518;2023-05-16T00:50:47;6.50;;;1.05;;
48859;SDS011;34679;51.436;-2.518;2023-05-16T00:53:14;3.45;;;1.33;;
48859;SDS011;34679;51.436;-2.518;2023-05-16T00:55:39;6.38;;;2.08;;
48859;SDS011;34679;51.436;-2.518;2023-05-16T00:58:05;3.90;;;1.42;;
48859;SDS011;34679;51.436;-2.518;2023-05-16T01:00:31;7.07;;;1.90;;
48859;SDS011;34679;51.436;-2.518;2023-05-16T01:02:58;7.05;;;1.52;;
48859;SDS011;34679;51.436;-2.518;2023-05-16T01:05:24;3.08;;;1.27;;
48859;SDS011;34679;51.436;-2.518;2023-05-16T01:07:50;8.63;;;1.35;;
48859;SDS011;34679;51.436;-2.518;2023-05-16T01:10:15;5.45;;;1.73;;
48859;SDS011;34679;51.436;-2.518;2023-05-16T01:12:53;2.83;;;1.63;;
48859;SDS011;34679;51.436;-2.518;2023-05-16T01:15:55;8.25;;;1.83;;
48859;SDS011;34679;51.436;-2.518;2023-05-16T01:18:36;8.50;;;1.85;;
48859;SDS011;34679;51.436;-2.518;2023-05-16T01:21:13;3.95;;;1.92;;
48859;SDS011;34679;51.436;-2.518;2023-05-16T01:23:58;7.03;;;1.75;;
48859;SDS011;34679;51.436;-2.518;2023-05-16T01:26:28;4.95;;;1.50;;
48859;SDS011;34679;51.436;-2.518;2023-05-16T01:28:55;3.45;;;1.75;;
48859;SDS011;34679;51.436;-2.518;2023-05-16T01:31:22;13.95;;;1.95;;
48859;SDS011;34679;51.436;-2.518;2023-05-16T01:33:48;4.95;;;1.73;;
48859;SDS011;34679;51.436;-2.518;2023-05-16T01:39:16;5.40;;;1.50;;
48859;SDS011;34679;51.436;-2.518;2023-05-16T01:42:12;2.80;;;1.38;;
48859;SDS011;34679;51.436;-2.518;2023-05-16T01:44:43;4.68;;;1.45;;
48859;SDS011;34679;51.436;-2.518;2023-05-16T01:47:13;4.72;;;1.30;;
48859;SDS011;34679;51.436;-2.518;2023-05-16T01:49:45;3.67;;;1.30;;
48859;SDS011;34679;51.436;-2.518;2023-05-16T01:52:27;6.85;;;1.52;;
48859;SDS011;34679;51.436;-2.518;2023-05-16T01:54:59;4.50;;;1.35;;
48859;SDS011;34679;51.436;-2.518;2023-05-16T01:57:27;7.30;;;1.58;;
48859;SDS011;34679;51.436;-2.518;2023-05-16T01:59:55;5.15;;;1.60;;
48859;SDS011;34679;51.436;-2.518;2023-05-16T02:02:24;6.32;;;1.45;;
48859;SDS011;34679;51.436;-2.518;2023-05-16T02:04:49;6.10;;;1.20;;
48859;SDS011;34679;51.436;-2.518;2023-05-16T02:07:15;7.90;;;1.40;;
48859;SDS011;34679;51.436;-2.518;2023-05-16T02:09:41;4.85;;;1.45;;
48859;SDS011;34679;51.436;-2.518;2023-05-16T02:12:07;7.05;;;1.65;;
48859;SDS011;34679;51.436;-2.518;2023-05-16T02:14:32;3.47;;;1.23;;
48859;SDS011;34679;51.436;-2.518;2023-05-16T02:16:58;4.10;;;1.70;;
48859;SDS011;34679;51.436;-2.518;2023-05-16T02:19:24;4.25;;;1.48;;
48859;SDS011;34679;51.436;-2.518;2023-05-16T02:21:49;3.55;;;1.60;;
48859;SDS011;34679;51.436;-2.518;2023-05-16T02:24:15;4.63;;;0.98;;
48859;SDS011;34679;51.436;-2.518;2023-05-16T02:26:41;3.33;;;1.00;;
48859;SDS011;34679;51.436;-2.518;2023-05-16T02:29:07;2.53;;;1.30;;
48859;SDS011;34679;51.436;-2.518;2023-05-16T02:31:33;7.30;;;1.60;;
48859;SDS011;34679;51.436;-2.518;2023-05-16T02:33:59;5.95;;;1.27;;
48859;SDS011;34679;51.436;-2.518;2023-05-16T02:36:25;11.95;;;1.90;;
48859;SDS011;34679;51.436;-2.518;2023-05-16T02:38:51;3.45;;;1.30;;
48859;SDS011;34679;51.436;-2.518;2023-05-16T02:41:17;5.50;;;1.33;;
48859;SDS011;34679;51.436;-2.518;2023-05-16T02:43:43;7.38;;;1.42;;
48859;SDS011;34679;51.436;-2.518;2023-05-16T02:46:28;6.68;;;1.30;;
48859;SDS011;34679;51.436;-2.518;2023-05-16T02:48:55;8.60;;;1.23;;
48859;SDS011;34679;51.436;-2.518;2023-05-16T02:51:22;5.18;;;0.98;;
48859;SDS011;34679;51.436;-2.518;2023-05-16T02:53:49;3.10;;;1.15;;
48859;SDS011;34679;51.436;-2.518;2023-05-16T02:56:16;4.93;;;1.40;;
48859;SDS011;34679;51.436;-2.518;2023-05-16T02:58:44;5.95;;;1.30;;
48859;SDS011;34679;51.436;-2.518;2023-05-16T03:01:14;5.75;;;1.35;;
48859;SDS011;34679;51.436;-2.518;2023-05-16T03:03:40;7.82;;;1.38;;
48859;SDS011;34679;51.436;-2.518;2023-05-16T03:06:06;5.35;;;1.27;;
48859;SDS011;34679;51.436;-2.518;2023-05-16T03:08:32;6.00;;;1.15;;
48859;SDS011;34679;51.436;-2.518;2023-05-16T03:10:59;7.15;;;1.02;;
48859;SDS011;34679;51.436;-2.518;2023-05-16T03:13:25;3.85;;;1.17;;
48859;SDS011;34679;51.436;-2.518;2023-05-16T03:15:51;6.28;;;1.10;;
48859;SDS011;34679;51.436;-2.518;2023-05-16T03:18:17;3.20;;;1.30;;
48859;SDS011;34679;51.436;-2.518;2023-05-16T03:20:43;4.60;;;1.75;;
48859;SDS011;34679;51.436;-2.518;2023-05-16T03:23:09;3.47;;;1.15;;
48859;SDS011;34679;51.436;-2.518;2023-05-16T03:25:34;5.72;;;1.50;;
48859;SDS011;34679;51.436;-2.518;2023-05-16T03:28:04;6.75;;;1.38;;
48859;SDS011;34679;51.436;-2.518;2023-05-16T03:30:32;6.35;;;1.70;;
48859;SDS011;34679;51.436;-2.518;2023-05-16T03:32:58;3.97;;;1.38;;
48859;SDS011;34679;51.436;-2.518;2023-05-16T03:35:24;2.95;;;1.10;;
48859;SDS011;34679;51.436;-2.518;2023-05-16T03:37:51;6.28;;;2.20;;
48859;SDS011;34679;51.436;-2.518;2023-05-16T03:40:16;8.82;;;1.35;;
48859;SDS011;34679;51.436;-2.518;2023-05-16T03:42:42;5.93;;;1.48;;
48859;SDS011;34679;51.436;-2.518;2023-05-16T03:45:08;5.15;;;1.50;;
48859;SDS011;34679;51.436;-2.518;2023-05-16T03:47:35;5.82;;;1.40;;
48859;SDS011;34679;51.436;-2.518;2023-05-16T03:50:00;6.30;;;1.30;;
48859;SDS011;34679;51.436;-2.518;2023-05-16T03:52:27;3.25;;;1.25;;
48859;SDS011;34679;51.436;-2.518;2023-05-16T03:54:53;4.95;;;1.27;;
48859;SDS011;34679;51.436;-2.518;2023-05-16T03:57:18;4.57;;;1.48;;
48859;SDS011;34679;51.436;-2.518;2023-05-16T03:59:44;3.50;;;1.38;;
48859;SDS011;34679;51.436;-2.518;2023-05-16T04:02:10;4.53;;;1.33;;
48859;SDS011;34679;51.436;-2.518;2023-05-16T04:04:36;2.42;;;1.17;;
48859;SDS011;34679;51.436;-2.518;2023-05-16T04:07:01;4.97;;;1.33;;
48859;SDS011;34679;51.436;-2.518;2023-05-16T04:09:27;5.63;;;1.30;;
48859;SDS011;34679;51.436;-2.518;2023-05-16T04:11:53;8.75;;;1.58;;
48859;SDS011;34679;51.436;-2.518;2023-05-16T04:14:22;4.68;;;1.38;;
48859;SDS011;34679;51.436;-2.518;2023-05-16T04:16:48;3.92;;;1.48;;
48859;SDS011;34679;51.436;-2.518;2023-05-16T04:19:14;5.38;;;1.40;;
48859;SDS011;34679;51.436;-2.518;2023-05-16T04:21:39;4.47;;;1.40;;
48859;SDS011;34679;51.436;-2.518;2023-05-16T04:24:05;3.00;;;1.40;;
48859;SDS011;34679;51.436;-2.518;2023-05-16T04:26:32;5.03;;;1.42;;
48859;SDS011;34679;51.436;-2.518;2023-05-16T04:28:58;3.28;;;1.30;;
48859;SDS011;34679;51.436;-2.518;2023-05-16T04:31:26;5.07;;;1.65;;
48859;SDS011;34679;51.436;-2.518;2023-05-16T04:33:52;6.10;;;1.77;;
48859;SDS011;34679;51.436;-2.518;2023-05-16T04:36:18;2.75;;;1.17;;
48859;SDS011;34679;51.436;-2.518;2023-05-16T04:38:45;3.45;;;1.40;;
48859;SDS011;34679;51.436;-2.518;2023-05-16T04:41:11;4.93;;;1.52;;
48859;SDS011;34679;51.436;-2.518;2023-05-16T04:43:37;3.75;;;1.90;;
48859;SDS011;34679;51.436;-2.518;2023-05-16T04:46:04;9.60;;;1.83;;
48859;SDS011;34679;51.436;-2.518;2023-05-16T04:48:31;4.93;;;2.00;;
48859;SDS011;34679;51.436;-2.518;2023-05-16T04:50:57;4.10;;;1.60;;
48859;SDS011;34679;51.436;-2.518;2023-05-16T04:53:23;7.55;;;1.73;;
48859;SDS011;34679;51.436;-2.518;2023-05-16T04:55:48;3.55;;;1.65;;
48859;SDS011;34679;51.436;-2.518;2023-05-16T04:58:14;3.72;;;1.50;;
48859;SDS011;34679;51.436;-2.518;2023-05-16T05:00:40;2.50;;;1.60;;
48859;SDS011;34679;51.436;-2.518;2023-05-16T05:03:06;2.50;;;1.50;;
48859;SDS011;34679;51.436;-2.518;2023-05-16T05:05:32;3.70;;;1.48;;
48859;SDS011;34679;51.436;-2.518;2023-05-16T05:07:58;4.15;;;1.10;;
48859;SDS011;34679;51.436;-2.518;2023-05-16T05:10:24;3.33;;;1.75;;
48859;SDS011;34679;51.436;-2.518;2023-05-16T05:12:51;2.85;;;1.20;;
48859;SDS011;34679;51.436;-2.518;2023-05-16T05:15:17;3.67;;;1.45;;
48859;SDS011;34679;51.436;-2.518;2023-05-16T05:17:43;2.75;;;1.20;;
48859;SDS011;34679;51.436;-2.518;2023-05-16T05:20:09;6.18;;;1.30;;
48859;SDS011;34679;51.436;-2.518;2023-05-16T05:22:36;4.18;;;1.52;;
48859;SDS011;34679;51.436;-2.518;2023-05-16T05:25:02;3.67;;;1.40;;
48859;SDS011;34679;51.436;-2.518;2023-05-16T05:27:28;6.72;;;2.35;;
48859;SDS011;34679;51.436;-2.518;2023-05-16T05:29:53;7.20;;;2.20;;
48859;SDS011;34679;51.436;-2.518;2023-05-16T05:32:20;3.75;;;1.77;;
48859;SDS011;34679;51.436;-2.518;2023-05-16T05:34:45;7.13;;;1.88;;
48859;SDS011;34679;51.436;-2.518;2023-05-16T05:37:11;6.55;;;2.17;;
48859;SDS011;34679;51.436;-2.518;2023-05-16T05:39:38;4.07;;;1.98;;
48859;SDS011;34679;51.436;-2.518;2023-05-16T05:42:04;5.57;;;1.75;;
48859;SDS011;34679;51.436;-2.518;2023-05-16T05:44:30;5.15;;;1.77;;
48859;SDS011;34679;51.436;-2.518;2023-05-16T05:46:56;3.17;;;1.45;;
48859;SDS011;34679;51.436;-2.518;2023-05-16T05:49:23;3.05;;;1.77;;
48859;SDS011;34679;51.436;-2.518;2023-05-16T05:51:49;6.03;;;1.60;;
48859;SDS011;34679;51.436;-2.518;2023-05-16T05:54:16;3.78;;;1.70;;
48859;SDS011;34679;51.436;-2.518;2023-05-16T05:56:45;4.95;;;1.70;;
48859;SDS011;34679;51.436;-2.518;2023-05-16T05:59:11;3.78;;;1.55;;
48859;SDS011;34679;51.436;-2.518;2023-05-16T06:01:37;3.15;;;1.63;;
48859;SDS011;34679;51.436;-2.518;2023-05-16T06:04:03;2.42;;;1.60;;
48859;SDS011;34679;51.436;-2.518;2023-05-16T06:06:30;6.25;;;1.50;;
48859;SDS011;34679;51.436;-2.518;2023-05-16T06:08:56;4.90;;;2.00;;
48859;SDS011;34679;51.436;-2.518;2023-05-16T06:11:22;6.40;;;2.00;;
48859;SDS011;34679;51.436;-2.518;2023-05-16T06:13:49;7.18;;;1.98;;
48859;SDS011;34679;51.436;-2.518;2023-05-16T06:16:15;6.38;;;1.73;;
48859;SDS011;34679;51.436;-2.518;2023-05-16T06:18:41;6.22;;;1.85;;
48859;SDS011;34679;51.436;-2.518;2023-05-16T06:21:07;3.83;;;1.65;;
48859;SDS011;34679;51.436;-2.518;2023-05-16T06:23:33;5.53;;;1.63;;
48859;SDS011;34679;51.436;-2.518;2023-05-16T06:25:59;4.15;;;1.60;;
48859;SDS011;34679;51.436;-2.518;2023-05-16T06:28:26;2.88;;;1.35;;
48859;SDS011;34679;51.436;-2.518;2023-05-16T06:30:52;5.72;;;1.95;;
48859;SDS011;34679;51.436;-2.518;2023-05-16T06:33:18;3.85;;;1.38;;
48859;SDS011;34679;51.436;-2.518;2023-05-16T06:35:45;2.65;;;1.42;;
48859;SDS011;34679;51.436;-2.518;2023-05-16T06:38:12;4.90;;;1.20;;
48859;SDS011;34679;51.436;-2.518;2023-05-16T06:40:39;5.28;;;2.15;;
48859;SDS011;34679;51.436;-2.518;2023-05-16T06:43:04;4.80;;;1.55;;
48859;SDS011;34679;51.436;-2.518;2023-05-16T06:45:30;4.25;;;1.48;;
48859;SDS011;34679;51.436;-2.518;2023-05-16T06:47:56;4.47;;;1.42;;
48859;SDS011;34679;51.436;-2.518;2023-05-16T06:50:22;4.13;;;1.45;;
48859;SDS011;34679;51.436;-2.518;2023-05-16T06:52:47;5.95;;;1.27;;
48859;SDS011;34679;51.436;-2.518;2023-05-16T06:55:13;5.15;;;1.40;;
48859;SDS011;34679;51.436;-2.518;2023-05-16T06:57:39;4.90;;;1.42;;
48859;SDS011;34679;51.436;-2.518;2023-05-16T07:00:05;10.23;;;1.63;;
48859;SDS011;34679;51.436;-2.518;2023-05-16T07:02:31;4.65;;;1.50;;
48859;SDS011;34679;51.436;-2.518;2023-05-16T07:04:56;3.58;;;1.33;;
48859;SDS011;34679;51.436;-2.518;2023-05-16T07:07:22;7.35;;;1.48;;
48859;SDS011;34679;51.436;-2.518;2023-05-16T07:09:48;6.25;;;1.50;;
48859;SDS011;34679;51.436;-2.518;2023-05-16T07:12:13;5.25;;;1.25;;
48859;SDS011;34679;51.436;-2.518;2023-05-16T07:14:39;7.30;;;1.02;;
48859;SDS011;34679;51.436;-2.518;2023-05-16T07:17:05;2.80;;;0.80;;
48859;SDS011;34679;51.436;-2.518;2023-05-16T07:19:31;3.58;;;1.05;;
48859;SDS011;34679;51.436;-2.518;2023-05-16T07:21:57;6.07;;;1.17;;
48859;SDS011;34679;51.436;-2.518;2023-05-16T07:24:22;4.90;;;0.90;;
48859;SDS011;34679;51.436;-2.518;2023-05-16T07:26:48;3.67;;;1.00;;
48859;SDS011;34679;51.436;-2.518;2023-05-16T07:29:14;7.05;;;1.20;;
48859;SDS011;34679;51.436;-2.518;2023-05-16T07:31:39;3.83;;;1.08;;
48859;SDS011;34679;51.436;-2.518;2023-05-16T07:34:05;9.98;;;1.27;;
48859;SDS011;34679;51.436;-2.518;2023-05-16T07:36:32;2.97;;;1.00;;
48859;SDS011;34679;51.436;-2.518;2023-05-16T07:38:58;3.42;;;1.05;;
48859;SDS011;34679;51.436;-2.518;2023-05-16T07:41:24;3.88;;;1.25;;
48859;SDS011;34679;51.436;-2.518;2023-05-16T07:43:50;6.30;;;1.25;;
48859;SDS011;34679;51.436;-2.518;2023-05-16T07:46:15;5.32;;;1.10;;
48859;SDS011;34679;51.436;-2.518;2023-05-16T07:48:41;5.10;;;1.70;;
48859;SDS011;34679;51.436;-2.518;2023-05-16T07:51:07;4.43;;;1.40;;
48859;SDS011;34679;51.436;-2.518;2023-05-16T07:53:32;4.88;;;1.30;;
48859;SDS011;34679;51.436;-2.518;2023-05-16T07:55:58;4.65;;;1.15;;
48859;SDS011;34679;51.436;-2.518;2023-05-16T07:58:24;4.57;;;0.85;;
48859;SDS011;34679;51.436;-2.518;2023-05-16T08:00:50;2.63;;;1.10;;
48859;SDS011;34679;51.436;-2.518;2023-05-16T08:03:15;5.72;;;1.00;;
48859;SDS011;34679;51.436;-2.518;2023-05-16T08:05:41;3.25;;;1.10;;
48859;SDS011;34679;51.436;-2.518;2023-05-16T08:08:07;5.88;;;1.33;;
48859;SDS011;34679;51.436;-2.518;2023-05-16T08:10:32;5.47;;;1.20;;
48859;SDS011;34679;51.436;-2.518;2023-05-16T08:12:58;9.32;;;1.65;;
48859;SDS011;34679;51.436;-2.518;2023-05-16T08:15:25;5.25;;;1.10;;
48859;SDS011;34679;51.436;-2.518;2023-05-16T08:17:53;6.32;;;1.02;;
48859;SDS011;34679;51.436;-2.518;2023-05-16T08:20:21;3.97;;;0.90;;
48859;SDS011;34679;51.436;-2.518;2023-05-16T08:22:46;7.63;;;1.20;;
48859;SDS011;34679;51.436;-2.518;2023-05-16T08:25:12;3.47;;;0.80;;
48859;SDS011;34679;51.436;-2.518;2023-05-16T08:27:38;3.03;;;0.80;;
48859;SDS011;34679;51.436;-2.518;2023-05-16T08:30:04;7.00;;;1.23;;
48859;SDS011;34679;51.436;-2.518;2023-05-16T08:32:30;3.35;;;1.10;;
48859;SDS011;34679;51.436;-2.518;2023-05-16T08:34:56;3.58;;;0.90;;
48859;SDS011;34679;51.436;-2.518;2023-05-16T08:37:21;8.32;;;1.42;;
48859;SDS011;34679;51.436;-2.518;2023-05-16T08:39:47;4.18;;;1.30;;
48859;SDS011;34679;51.436;-2.518;2023-05-16T08:42:13;5.55;;;1.27;;
48859;SDS011;34679;51.436;-2.518;2023-05-16T08:44:39;5.35;;;1.50;;
48859;SDS011;34679;51.436;-2.518;2023-05-16T08:47:17;5.38;;;0.93;;
48859;SDS011;34679;51.436;-2.518;2023-05-16T08:49:43;8.68;;;1.15;;
48859;SDS011;34679;51.436;-2.518;2023-05-16T08:52:12;9.43;;;1.45;;
48859;SDS011;34679;51.436;-2.518;2023-05-16T08:54:41;5.75;;;1.17;;
48859;SDS011;34679;51.436;-2.518;2023-05-16T08:57:08;5.28;;;1.70;;
48859;SDS011;34679;51.436;-2.518;2023-05-16T08:59:34;8.05;;;1.77;;
48859;SDS011;34679;51.436;-2.518;2023-05-16T09:02:00;8.82;;;1.35;;
48859;SDS011;34679;51.436;-2.518;2023-05-16T09:04:26;4.30;;;1.10;;
48859;SDS011;34679;51.436;-2.518;2023-05-16T09:06:53;6.63;;;1.42;;
48859;SDS011;34679;51.436;-2.518;2023-05-16T09:09:18;4.13;;;0.82;;
48859;SDS011;34679;51.436;-2.518;2023-05-16T09:11:44;6.57;;;2.03;;
48859;SDS011;34679;51.436;-2.518;2023-05-16T09:14:10;6.25;;;1.65;;
48859;SDS011;34679;51.436;-2.518;2023-05-16T09:16:36;4.43;;;1.30;;
48859;SDS011;34679;51.436;-2.518;2023-05-16T09:19:02;7.68;;;1.45;;
48859;SDS011;34679;51.436;-2.518;2023-05-16T09:21:29;10.60;;;1.20;;
48859;SDS011;34679;51.436;-2.518;2023-05-16T09:26:29;5.60;;;1.10;;
48859;SDS011;34679;51.436;-2.518;2023-05-16T09:28:56;5.70;;;1.70;;
48859;SDS011;34679;51.436;-2.518;2023-05-16T09:31:24;7.55;;;1.33;;
48859;SDS011;34679;51.436;-2.518;2023-05-16T09:33:51;6.45;;;1.25;;
48859;SDS011;34679;51.436;-2.518;2023-05-16T09:36:17;2.05;;;0.85;;
48859;SDS011;34679;51.436;-2.518;2023-05-16T09:38:43;7.15;;;1.60;;
48859;SDS011;34679;51.436;-2.518;2023-05-16T09:41:09;5.50;;;1.60;;
48859;SDS011;34679;51.436;-2.518;2023-05-16T09:43:39;6.57;;;1.55;;
48859;SDS011;34679;51.436;-2.518;2023-05-16T09:46:05;4.15;;;1.20;;
48859;SDS011;34679;51.436;-2.518;2023-05-16T09:48:31;3.80;;;1.10;;
48859;SDS011;34679;51.436;-2.518;2023-05-16T09:50:57;6.22;;;1.73;;
48859;SDS011;34679;51.436;-2.518;2023-05-16T09:53:29;3.90;;;0.90;;
48859;SDS011;34679;51.436;-2.518;2023-05-16T09:56:03;7.30;;;1.63;;
48859;SDS011;34679;51.436;-2.518;2023-05-16T09:58:35;4.68;;;1.38;;
48859;SDS011;34679;51.436;-2.518;2023-05-16T10:01:03;4.60;;;1.15;;
48859;SDS011;34679;51.436;-2.518;2023-05-16T10:03:31;4.75;;;1.52;;
48859;SDS011;34679;51.436;-2.518;2023-05-16T10:06:01;7.28;;;1.42;;
48859;SDS011;34679;51.436;-2.518;2023-05-16T10:08:28;5.20;;;1.25;;
48859;SDS011;34679;51.436;-2.518;2023-05-16T10:10:56;6.13;;;1.50;;
48859;SDS011;34679;51.436;-2.518;2023-05-16T10:13:22;5.07;;;1.30;;
48859;SDS011;34679;51.436;-2.518;2023-05-16T10:15:53;5.75;;;1.33;;
48859;SDS011;34679;51.436;-2.518;2023-05-16T10:18:20;6.55;;;1.30;;
48859;SDS011;34679;51.436;-2.518;2023-05-16T10:20:48;5.72;;;1.27;;
48859;SDS011;34679;51.436;-2.518;2023-05-16T10:23:19;4.75;;;1.35;;
48859;SDS011;34679;51.436;-2.518;2023-05-16T10:25:47;3.45;;;1.48;;
48859;SDS011;34679;51.436;-2.518;2023-05-16T10:28:14;4.80;;;1.35;;
48859;SDS011;34679;51.436;-2.518;2023-05-16T10:30:41;5.50;;;1.70;;
48859;SDS011;34679;51.436;-2.518;2023-05-16T10:33:13;7.15;;;1.17;;
48859;SDS011;34679;51.436;-2.518;2023-05-16T10:35:40;8.63;;;1.30;;
48859;SDS011;34679;51.436;-2.518;2023-05-16T10:38:09;2.20;;;0.88;;
48859;SDS011;34679;51.436;-2.518;2023-05-16T10:40:37;8.20;;;1.55;;
48859;SDS011;34679;51.436;-2.518;2023-05-16T10:43:05;8.15;;;2.20;;
48859;SDS011;34679;51.436;-2.518;2023-05-16T10:45:32;8.38;;;2.00;;
48859;SDS011;34679;51.436;-2.518;2023-05-16T10:48:03;4.65;;;1.38;;
48859;SDS011;34679;51.436;-2.518;2023-05-16T10:50:34;6.78;;;1.30;;
48859;SDS011;34679;51.436;-2.518;2023-05-16T10:55:43;4.10;;;1.58;;
48859;SDS011;34679;51.436;-2.518;2023-05-16T11:09:03;3.75;;;1.20;;
48859;SDS011;34679;51.436;-2.518;2023-05-16T11:11:39;4.13;;;1.50;;
48859;SDS011;34679;51.436;-2.518;2023-05-16T11:14:05;4.07;;;1.45;;
48859;SDS011;34679;51.436;-2.518;2023-05-16T11:16:32;4.90;;;1.58;;
48859;SDS011;34679;51.436;-2.518;2023-05-16T11:19:03;4.82;;;1.60;;
48859;SDS011;34679;51.436;-2.518;2023-05-16T11:24:31;7.22;;;1.77;;
48859;SDS011;34679;51.436;-2.518;2023-05-16T11:26:59;5.00;;;1.55;;
48859;SDS011;34679;51.436;-2.518;2023-05-16T11:29:30;7.50;;;2.00;;
48859;SDS011;34679;51.436;-2.518;2023-05-16T11:32:01;5.45;;;1.70;;
48859;SDS011;34679;51.436;-2.518;2023-05-16T11:34:29;6.55;;;1.67;;
48859;SDS011;34679;51.436;-2.518;2023-05-16T11:36:55;4.15;;;1.77;;
48859;SDS011;34679;51.436;-2.518;2023-05-16T11:39:21;11.20;;;2.10;;
48859;SDS011;34679;51.436;-2.518;2023-05-16T11:41:50;8.25;;;2.38;;
48859;SDS011;34679;51.436;-2.518;2023-05-16T11:44:17;9.27;;;2.30;;
48859;SDS011;34679;51.436;-2.518;2023-05-16T11:46:43;6.70;;;2.17;;
48859;SDS011;34679;51.436;-2.518;2023-05-16T11:49:10;4.18;;;2.10;;
48859;SDS011;34679;51.436;-2.518;2023-05-16T11:51:39;6.50;;;2.30;;
48859;SDS011;34679;51.436;-2.518;2023-05-16T11:54:08;3.83;;;2.40;;
48859;SDS011;34679;51.436;-2.518;2023-05-16T11:56:35;4.68;;;2.08;;
48859;SDS011;34679;51.436;-2.518;2023-05-16T11:59:01;5.65;;;2.47;;
48859;SDS011;34679;51.436;-2.518;2023-05-16T12:01:32;7.82;;;2.22;;
48859;SDS011;34679;51.436;-2.518;2023-05-16T12:04:06;5.05;;;2.28;;
48859;SDS011;34679;51.436;-2.518;2023-05-16T12:06:35;6.35;;;2.30;;
48859;SDS011;34679;51.436;-2.518;2023-05-16T12:09:03;8.55;;;2.35;;
48859;SDS011;34679;51.436;-2.518;2023-05-16T12:11:37;6.18;;;2.28;;
48859;SDS011;34679;51.436;-2.518;2023-05-16T12:14:08;6.40;;;2.03;;
48859;SDS011;34679;51.436;-2.518;2023-05-16T12:16:36;5.57;;;2.45;;
48859;SDS011;34679;51.436;-2.518;2023-05-16T12:19:06;6.55;;;2.60;;
48859;SDS011;34679;51.436;-2.518;2023-05-16T12:21:33;6.10;;;2.65;;
48859;SDS011;34679;51.436;-2.518;2023-05-16T12:23:59;7.22;;;2.38;;
48859;SDS011;34679;51.436;-2.518;2023-05-16T12:26:26;5.90;;;2.50;;
48859;SDS011;34679;51.436;-2.518;2023-05-16T12:28:58;11.05;;;2.55;;
48859;SDS011;34679;51.436;-2.518;2023-05-16T12:31:27;6.32;;;3.08;;
48859;SDS011;34679;51.436;-2.518;2023-05-16T12:33:54;7.13;;;2.30;;
48859;SDS011;34679;51.436;-2.518;2023-05-16T12:36:21;6.18;;;2.28;;
48859;SDS011;34679;51.436;-2.518;2023-05-16T12:38:48;6.60;;;2.80;;
48859;SDS011;34679;51.436;-2.518;2023-05-16T12:41:21;4.82;;;2.30;;
48859;SDS011;34679;51.436;-2.518;2023-05-16T12:46:12;6.47;;;2.55;;
48859;SDS011;34679;51.436;-2.518;2023-05-16T12:48:38;5.47;;;2.30;;
48859;SDS011;34679;51.436;-2.518;2023-05-16T12:53:44;6.18;;;2.65;;
48859;SDS011;34679;51.436;-2.518;2023-05-16T12:56:11;8.48;;;2.67;;
48859;SDS011;34679;51.436;-2.518;2023-05-16T12:58:38;2.63;;;2.05;;
48859;SDS011;34679;51.436;-2.518;2023-05-16T13:01:05;4.30;;;2.17;;
48859;SDS011;34679;51.436;-2.518;2023-05-16T13:03:31;5.78;;;2.40;;
48859;SDS011;34679;51.436;-2.518;2023-05-16T13:05:58;5.70;;;2.45;;
48859;SDS011;34679;51.436;-2.518;2023-05-16T13:08:24;9.60;;;2.55;;
48859;SDS011;34679;51.436;-2.518;2023-05-16T13:10:50;7.30;;;2.38;;
48859;SDS011;34679;51.436;-2.518;2023-05-16T13:13:16;4.07;;;2.25;;
48859;SDS011;34679;51.436;-2.518;2023-05-16T13:15:43;4.18;;;2.10;;
48859;SDS011;34679;51.436;-2.518;2023-05-16T13:18:09;9.23;;;2.72;;
48859;SDS011;34679;51.436;-2.518;2023-05-16T13:20:35;5.15;;;2.80;;
48859;SDS011;34679;51.436;-2.518;2023-05-16T13:23:02;7.78;;;2.50;;
48859;SDS011;34679;51.436;-2.518;2023-05-16T13:25:29;7.38;;;2.63;;
48859;SDS011;34679;51.436;-2.518;2023-05-16T13:27:55;5.55;;;2.55;;
48859;SDS011;34679;51.436;-2.518;2023-05-16T13:30:21;7.20;;;3.08;;
48859;SDS011;34679;51.436;-2.518;2023-05-16T13:32:47;4.40;;;2.78;;
48859;SDS011;34679;51.436;-2.518;2023-05-16T13:35:13;5.90;;;2.53;;
48859;SDS011;34679;51.436;-2.518;2023-05-16T13:37:38;2.70;;;2.05;;
48859;SDS011;34679;51.436;-2.518;2023-05-16T13:40:05;4.40;;;2.55;;
48859;SDS011;34679;51.436;-2.518;2023-05-16T13:42:34;6.30;;;2.20;;
48859;SDS011;34679;51.436;-2.518;2023-05-16T13:45:01;7.18;;;2.58;;
48859;SDS011;34679;51.436;-2.518;2023-05-16T13:47:27;6.53;;;2.60;;
48859;SDS011;34679;51.436;-2.518;2023-05-16T13:49:53;5.50;;;2.60;;
48859;SDS011;34679;51.436;-2.518;2023-05-16T13:52:19;6.65;;;2.22;;
48859;SDS011;34679;51.436;-2.518;2023-05-16T13:54:45;7.95;;;2.72;;
48859;SDS011;34679;51.436;-2.518;2023-05-16T13:57:11;4.32;;;2.20;;
48859;SDS011;34679;51.436;-2.518;2023-05-16T13:59:37;8.40;;;2.70;;
48859;SDS011;34679;51.436;-2.518;2023-05-16T14:02:03;5.82;;;2.92;;
48859;SDS011;34679;51.436;-2.518;2023-05-16T14:04:29;7.93;;;2.47;;
48859;SDS011;34679;51.436;-2.518;2023-05-16T14:06:55;5.45;;;2.60;;
48859;SDS011;34679;51.436;-2.518;2023-05-16T14:09:20;4.45;;;2.28;;
48859;SDS011;34679;51.436;-2.518;2023-05-16T14:11:46;5.97;;;2.42;;
48859;SDS011;34679;51.436;-2.518;2023-05-16T14:14:12;5.88;;;2.42;;
48859;SDS011;34679;51.436;-2.518;2023-05-16T14:16:37;9.60;;;2.80;;
48859;SDS011;34679;51.436;-2.518;2023-05-16T14:19:07;10.07;;;2.88;;
48859;SDS011;34679;51.436;-2.518;2023-05-16T14:21:33;6.93;;;2.25;;
48859;SDS011;34679;51.436;-2.518;2023-05-16T14:23:58;11.80;;;2.78;;
48859;SDS011;34679;51.436;-2.518;2023-05-16T14:26:24;5.55;;;2.35;;
48859;SDS011;34679;51.436;-2.518;2023-05-16T14:28:50;4.32;;;2.28;;
48859;SDS011;34679;51.436;-2.518;2023-05-16T14:31:16;6.38;;;2.45;;
48859;SDS011;34679;51.436;-2.518;2023-05-16T14:33:42;6.53;;;2.70;;
48859;SDS011;34679;51.436;-2.518;2023-05-16T14:36:08;7.20;;;2.83;;
48859;SDS011;34679;51.436;-2.518;2023-05-16T14:38:33;5.05;;;2.45;;
48859;SDS011;34679;51.436;-2.518;2023-05-16T14:40:59;5.65;;;2.88;;
48859;SDS011;34679;51.436;-2.518;2023-05-16T14:43:25;6.53;;;2.22;;
48859;SDS011;34679;51.436;-2.518;2023-05-16T14:45:51;9.57;;;2.80;;
48859;SDS011;34679;51.436;-2.518;2023-05-16T14:48:16;5.95;;;2.60;;
48859;SDS011;34679;51.436;-2.518;2023-05-16T14:50:42;5.30;;;2.10;;
48859;SDS011;34679;51.436;-2.518;2023-05-16T14:53:08;7.45;;;2.70;;
48859;SDS011;34679;51.436;-2.518;2023-05-16T14:55:34;6.18;;;2.90;;
48859;SDS011;34679;51.436;-2.518;2023-05-16T14:57:59;5.07;;;2.60;;
48859;SDS011;34679;51.436;-2.518;2023-05-16T15:00:25;5.93;;;2.42;;